Time;durP1;ratioP1;P1;durP2;ratioP2;P2;SDS_P1;SDS_P2;PMS_P1;PMS_P2;Temp;Humidity;BMP_temperature;BMP_pressure;BME280_temperature;BME280_humidity;BME280_pressure;Samples;Min_cycle;Max_cycle;Signal;HPM_P1;HPM_P2
2023/09/12 00:00:06;;;;;;;15.77;9.27;;;;;21.70;98224.00;;;;4915516;29;20158;-64
2023/09/12 00:02:37;;;;;;;10.40;8.85;;;;;21.60;98221.00;;;;4916897;29;20056;-64
2023/09/12 00:05:05;;;;;;;11.25;8.70;;;;;21.50;98230.00;;;;4916450;29;20217;-65
2023/09/12 00:07:31;;;;;;;12.25;9.02;;;;;21.70;98222.00;;;;4915697;29;20054;-66
2023/09/12 00:09:58;;;;;;;14.68;8.43;;;;;21.70;98223.00;;;;4916892;29;20052;-64
2023/09/12 00:12:24;;;;;;;16.92;9.63;;;;;21.60;98221.00;;;;4916658;29;20127;-64
2023/09/12 00:14:51;;;;;;;14.52;9.25;;;;;21.50;98220.00;;;;4916296;29;20044;-65
2023/09/12 00:17:18;;;;;;;11.65;8.77;;;;;21.30;98214.00;;;;4916495;29;20596;-65
2023/09/12 00:19:45;;;;;;;11.75;10.00;;;;;21.30;98219.00;;;;4899752;29;20502;-64
2023/09/12 00:22:12;;;;;;;13.90;8.65;;;;;21.30;98214.00;;;;4915383;29;20048;-64
2023/09/12 00:24:38;;;;;;;14.55;9.82;;;;;21.40;98214.00;;;;4916196;29;20080;-65
2023/09/12 00:27:05;;;;;;;16.45;9.40;;;;;21.50;98220.00;;;;4915112;29;20395;-66
2023/09/12 00:29:32;;;;;;;13.25;8.82;;;;;21.60;98214.00;;;;4915227;29;20146;-65
2023/09/12 00:31:59;;;;;;;12.95;9.75;;;;;21.60;98202.00;;;;4914889;29;20096;-65
2023/09/12 00:34:25;;;;;;;10.50;8.70;;;;;21.50;98209.00;;;;4914869;29;20395;-65
2023/09/12 00:36:52;;;;;;;12.90;9.15;;;;;21.20;98197.00;;;;4915241;29;20418;-65
2023/09/12 00:39:19;;;;;;;14.43;8.63;;;;;21.10;98204.00;;;;4914782;29;20139;-65
2023/09/12 00:41:45;;;;;;;12.40;9.18;;;;;21.20;98199.00;;;;4899843;29;20047;-65
2023/09/12 00:44:12;;;;;;;15.40;9.23;;;;;21.40;98203.00;;;;4916088;29;20139;-65
2023/09/12 00:46:40;;;;;;;13.55;9.10;;;;;21.40;98188.00;;;;4916261;29;20476;-65
2023/09/12 00:49:07;;;;;;;14.52;9.60;;;;;21.30;98189.00;;;;4916353;29;20054;-65
2023/09/12 00:51:35;;;;;;;9.70;8.63;;;;;21.30;98185.00;;;;4914774;29;20501;-65
2023/09/12 00:54:03;;;;;;;12.75;8.80;;;;;21.30;98183.00;;;;4915965;29;20046;-65
2023/09/12 00:56:30;;;;;;;10.77;9.05;;;;;21.30;98172.00;;;;4899704;29;20138;-65
2023/09/12 00:58:57;;;;;;;12.38;9.25;;;;;21.30;98178.00;;;;4915806;29;20044;-65
2023/09/12 01:01:24;;;;;;;8.90;7.97;;;;;21.40;98173.00;;;;4914713;29;20086;-64
2023/09/12 01:03:51;;;;;;;15.93;9.68;;;;;21.40;98172.00;;;;4915808;29;20052;-64
2023/09/12 01:06:26;;;;;;;13.23;9.57;;;;;21.40;98167.00;;;;4914863;29;20047;-65
2023/09/12 01:08:53;;;;;;;13.95;9.15;;;;;21.30;98161.00;;;;4914855;29;20052;-64
2023/09/12 01:11:20;;;;;;;12.85;8.88;;;;;21.10;98155.00;;;;4899152;29;20430;-64
2023/09/12 01:13:47;;;;;;;13.77;8.68;;;;;21.20;98162.00;;;;4914466;29;20220;-65
2023/09/12 01:16:14;;;;;;;11.40;8.82;;;;;21.40;98162.00;;;;4899184;29;20083;-65
2023/09/12 01:18:42;;;;;;;11.55;9.98;;;;;21.50;98162.00;;;;4914977;29;20135;-64
2023/09/12 01:21:38;;;;;;;12.93;9.40;;;;;21.60;98160.00;;;;4916320;29;20450;-65
2023/09/12 01:24:21;;;;;;;12.77;9.18;;;;;21.60;98167.00;;;;4913353;29;20048;-64
2023/09/12 01:27:16;;;;;;;11.53;8.33;;;;;21.70;98176.00;;;;4914918;29;20147;-64
2023/09/12 01:29:45;;;;;;;12.00;8.77;;;;;21.80;98184.00;;;;4915229;29;20056;-65
2023/09/12 01:32:14;;;;;;;13.95;9.20;;;;;21.80;98179.00;;;;4914877;29;20080;-65
2023/09/12 01:34:41;;;;;;;13.48;9.38;;;;;21.80;98181.00;;;;4914134;29;20052;-65
2023/09/12 01:37:07;;;;;;;10.77;9.00;;;;;21.80;98179.00;;;;4914986;29;20148;-65
2023/09/12 01:39:34;;;;;;;12.32;9.07;;;;;21.70;98175.00;;;;4899016;29;20156;-65
2023/09/12 01:42:01;;;;;;;13.05;8.80;;;;;21.60;98167.00;;;;4914672;29;20135;-65
2023/09/12 01:44:30;;;;;;;16.73;8.50;;;;;21.60;98177.00;;;;4914358;29;20052;-65
2023/09/12 01:47:02;;;;;;;15.30;9.90;;;;;21.60;98173.00;;;;4899102;29;20497;-65
2023/09/12 01:49:30;;;;;;;13.45;8.75;;;;;21.60;98170.00;;;;4914376;29;20686;-65
2023/09/12 01:51:59;;;;;;;15.27;9.40;;;;;21.60;98169.00;;;;4915787;29;20056;-65
2023/09/12 01:54:27;;;;;;;12.48;9.52;;;;;21.40;98166.00;;;;4914038;29;20135;-65
2023/09/12 01:56:58;;;;;;;15.32;9.57;;;;;21.30;98163.00;;;;4898800;29;20510;-65
2023/09/12 01:59:25;;;;;;;12.95;9.93;;;;;21.40;98162.00;;;;4899251;29;20095;-65
2023/09/12 02:01:52;;;;;;;13.38;9.23;;;;;21.10;98155.00;;;;4898759;29;20067;-65
2023/09/12 02:04:19;;;;;;;10.38;9.02;;;;;20.90;98157.00;;;;4914099;29;20529;-64
2023/09/12 02:06:45;;;;;;;11.45;8.85;;;;;20.90;98152.00;;;;4914687;29;20059;-66
2023/09/12 02:09:14;;;;;;;15.60;10.05;;;;;20.70;98149.00;;;;4914883;29;20051;-65
2023/09/12 02:11:41;;;;;;;11.95;9.48;;;;;20.70;98145.00;;;;4916491;29;20048;-66
2023/09/12 02:14:08;;;;;;;14.05;9.85;;;;;20.60;98147.00;;;;4919295;29;20056;-64
2023/09/12 02:16:37;;;;;;;12.38;9.73;;;;;20.50;98149.00;;;;4919679;29;20052;-64
2023/09/12 02:19:07;;;;;;;11.25;9.70;;;;;20.60;98152.00;;;;4902861;29;20528;-64
2023/09/12 02:21:34;;;;;;;16.02;10.23;;;;;20.80;98154.00;;;;4918278;29;20072;-65
2023/09/12 02:24:01;;;;;;;12.15;10.00;;;;;20.90;98163.00;;;;4918897;29;20378;-65
2023/09/12 02:26:27;;;;;;;13.90;9.30;;;;;21.10;98158.00;;;;4918164;29;20052;-65
2023/09/12 02:28:54;;;;;;;14.45;9.88;;;;;21.10;98158.00;;;;4917700;29;20047;-66
2023/09/12 02:31:21;;;;;;;15.27;9.38;;;;;21.00;98156.00;;;;4917738;29;20079;-64
2023/09/12 02:33:47;;;;;;;11.25;9.13;;;;;20.80;98146.00;;;;4917144;29;20056;-66
2023/09/12 02:36:14;;;;;;;13.43;9.75;;;;;20.90;98143.00;;;;4918756;29;20047;-65
2023/09/12 02:38:41;;;;;;;14.25;9.98;;;;;20.90;98142.00;;;;4918482;29;20131;-65
2023/09/12 02:41:08;;;;;;;11.63;9.15;;;;;20.90;98142.00;;;;4917342;29;20052;-65
2023/09/12 02:43:35;;;;;;;11.90;8.77;;;;;21.10;98146.00;;;;4917254;29;20096;-65
2023/09/12 02:46:01;;;;;;;14.30;9.55;;;;;21.10;98136.00;;;;4916896;29;20464;-65
2023/09/12 02:48:28;;;;;;;12.68;9.27;;;;;21.10;98136.00;;;;4917118;29;20516;-65
2023/09/12 02:50:55;;;;;;;12.43;9.15;;;;;21.10;98128.00;;;;4918463;29;20040;-65
2023/09/12 02:53:21;;;;;;;14.30;8.95;;;;;21.10;98135.00;;;;4918518;29;20130;-66
2023/09/12 02:55:48;;;;;;;11.07;8.70;;;;;21.20;98135.00;;;;4916995;29;20048;-67
2023/09/12 02:58:15;;;;;;;13.20;8.98;;;;;21.10;98134.00;;;;4917325;29;20063;-64
2023/09/12 03:00:41;;;;;;;13.32;8.73;;;;;21.10;98138.00;;;;4919168;29;20044;-65
2023/09/12 03:03:09;;;;;;;15.52;8.85;;;;;21.20;98134.00;;;;4917221;29;20154;-65
2023/09/12 03:05:38;;;;;;;12.02;9.00;;;;;21.20;98127.00;;;;4901328;29;20059;-65
2023/09/12 03:08:04;;;;;;;16.67;8.35;;;;;21.10;98128.00;;;;4916992;29;20421;-65
2023/09/12 03:10:31;;;;;;;21.33;9.40;;;;;21.10;98124.00;;;;4901473;29;20060;-65
2023/09/12 03:12:58;;;;;;;12.63;9.10;;;;;21.20;98128.00;;;;4917948;29;20048;-64
2023/09/12 03:15:24;;;;;;;13.55;7.93;;;;;21.20;98126.00;;;;4917604;29;20350;-65
2023/09/12 03:17:51;;;;;;;11.73;8.60;;;;;21.30;98137.00;;;;4916486;29;20048;-66
2023/09/12 03:20:17;;;;;;;11.35;8.50;;;;;21.30;98136.00;;;;4901017;29;20115;-65
2023/09/12 03:22:46;;;;;;;15.85;8.25;;;;;21.00;98133.00;;;;4917912;29;20083;-64
2023/09/12 03:25:12;;;;;;;10.75;9.30;;;;;21.00;98135.00;;;;4917167;29;20530;-66
2023/09/12 03:27:39;;;;;;;11.75;8.63;;;;;21.00;98143.00;;;;4917600;29;20104;-64
2023/09/12 03:30:06;;;;;;;11.05;8.65;;;;;21.00;98144.00;;;;4916370;29;20146;-65
2023/09/12 03:32:33;;;;;;;11.07;8.85;;;;;21.10;98146.00;;;;4916398;29;20286;-65
2023/09/12 03:34:59;;;;;;;12.13;9.05;;;;;21.20;98151.00;;;;4915538;29;20521;-65
2023/09/12 03:37:28;;;;;;;11.95;8.85;;;;;21.10;98148.00;;;;4916216;29;20044;-65
2023/09/12 03:39:55;;;;;;;16.40;8.65;;;;;21.20;98136.00;;;;4917279;29;20044;-65
2023/09/12 03:42:22;;;;;;;10.93;9.18;;;;;21.30;98143.00;;;;4916178;29;20494;-65
2023/09/12 03:44:53;;;;;;;11.63;9.70;;;;;21.30;98142.00;;;;4900942;29;20052;-65
2023/09/12 03:47:19;;;;;;;14.00;10.02;;;;;21.30;98141.00;;;;4900980;29;20056;-66
2023/09/12 03:49:46;;;;;;;12.40;9.35;;;;;21.40;98142.00;;;;4916898;29;20063;-65
2023/09/12 03:52:13;;;;;;;10.18;8.73;;;;;21.30;98139.00;;;;4901042;29;20051;-65
2023/09/12 03:54:39;;;;;;;10.82;9.15;;;;;21.40;98140.00;;;;4917009;29;20499;-65
2023/09/12 03:57:07;;;;;;;13.25;8.98;;;;;21.40;98146.00;;;;4916071;29;20051;-65
2023/09/12 03:59:34;;;;;;;13.07;8.40;;;;;21.50;98139.00;;;;4915906;29;20040;-65
2023/09/12 04:02:02;;;;;;;12.60;8.98;;;;;21.40;98140.00;;;;4915711;29;20077;-67
2023/09/12 04:04:29;;;;;;;9.32;8.43;;;;;21.40;98140.00;;;;4914837;29;20047;-64
2023/09/12 04:06:56;;;;;;;10.63;9.20;;;;;21.40;98143.00;;;;4915586;29;20052;-64
2023/09/12 04:09:22;;;;;;;12.90;9.68;;;;;21.40;98134.00;;;;4915556;29;20047;-64
2023/09/12 04:11:49;;;;;;;12.27;9.43;;;;;21.30;98140.00;;;;4915999;29;20048;-64
2023/09/12 04:14:20;;;;;;;11.82;8.93;;;;;21.30;98148.00;;;;4914904;29;20111;-65
2023/09/12 04:16:47;;;;;;;14.85;9.68;;;;;21.30;98152.00;;;;4915165;29;20084;-64
2023/09/12 04:19:14;;;;;;;12.02;9.15;;;;;21.20;98147.00;;;;4915552;29;20056;-65
2023/09/12 04:21:41;;;;;;;11.75;8.38;;;;;21.20;98142.00;;;;4900087;29;20491;-64
2023/09/12 04:24:08;;;;;;;10.63;9.52;;;;;21.20;98143.00;;;;4914910;29;20044;-64
2023/09/12 04:26:35;;;;;;;13.60;9.05;;;;;21.10;98139.00;;;;4916865;29;20048;-64
2023/09/12 04:29:01;;;;;;;15.05;9.57;;;;;21.00;98144.00;;;;4915438;29;20560;-64
2023/09/12 04:31:28;;;;;;;12.77;9.60;;;;;20.90;98137.00;;;;4915349;29;20048;-65
2023/09/12 04:33:55;;;;;;;16.33;9.55;;;;;20.70;98134.00;;;;4914510;29;20052;-64
2023/09/12 04:36:22;;;;;;;14.98;9.70;;;;;20.70;98145.00;;;;4915617;29;20051;-66
2023/09/12 04:38:49;;;;;;;14.10;9.52;;;;;20.70;98134.00;;;;4915192;29;20143;-63
2023/09/12 04:41:16;;;;;;;16.23;10.13;;;;;20.60;98141.00;;;;4899787;29;20417;-65
2023/09/12 04:43:47;;;;;;;14.55;9.93;;;;;20.60;98132.00;;;;4914414;29;20051;-65
2023/09/12 04:46:14;;;;;;;12.93;9.43;;;;;20.60;98143.00;;;;4915137;29;20146;-66
2023/09/12 04:48:41;;;;;;;15.82;10.07;;;;;20.50;98136.00;;;;4899683;29;20525;-66
2023/09/12 04:51:08;;;;;;;13.77;9.45;;;;;20.40;98133.00;;;;4914911;29;20048;-65
2023/09/12 04:53:35;;;;;;;15.25;9.88;;;;;20.40;98130.00;;;;4915645;29;20127;-65
2023/09/12 04:56:06;;;;;;;12.68;9.40;;;;;20.50;98123.00;;;;4915120;29;20053;-65
2023/09/12 04:58:32;;;;;;;12.98;9.55;;;;;20.40;98130.00;;;;4930630;29;20106;-66
2023/09/12 05:00:59;;;;;;;12.50;8.60;;;;;20.30;98130.00;;;;4917196;29;20442;-65
2023/09/12 05:03:26;;;;;;;13.88;8.95;;;;;20.40;98124.00;;;;4933199;29;20139;-65
2023/09/12 05:05:53;;;;;;;12.20;8.43;;;;;20.40;98119.00;;;;4933590;29;20043;-66
2023/09/12 05:08:20;;;;;;;11.05;9.02;;;;;20.40;98117.00;;;;4933875;29;20461;-65
2023/09/12 05:10:47;;;;;;;10.23;9.10;;;;;20.40;98121.00;;;;4935143;29;20043;-66
2023/09/12 05:13:14;;;;;;;16.55;9.20;;;;;20.50;98119.00;;;;4933618;29;20052;-65
2023/09/12 05:15:41;;;;;;;11.70;8.45;;;;;20.40;98119.00;;;;4933026;29;20048;-65
2023/09/12 05:18:08;;;;;;;13.52;8.82;;;;;20.20;98115.00;;;;4933697;29;20052;-65
2023/09/12 05:20:35;;;;;;;11.00;8.70;;;;;20.20;98124.00;;;;4933879;29;20047;-66
2023/09/12 05:23:02;;;;;;;11.65;8.85;;;;;20.40;98121.00;;;;4933558;29;20374;-66
2023/09/12 05:25:30;;;;;;;12.77;8.80;;;;;20.50;98122.00;;;;4933047;29;20044;-65
2023/09/12 05:27:56;;;;;;;11.30;8.90;;;;;20.40;98121.00;;;;4933746;29;20146;-65
2023/09/12 05:30:23;;;;;;;12.45;9.30;;;;;20.40;98129.00;;;;4917885;29;20062;-66
2023/09/12 05:32:50;;;;;;;11.40;8.73;;;;;20.50;98133.00;;;;4933947;29;20052;-65
2023/09/12 05:35:17;;;;;;;11.20;9.63;;;;;20.60;98139.00;;;;4917711;29;20056;-65
2023/09/12 05:37:50;;;;;;;12.93;9.25;;;;;20.70;98143.00;;;;4934013;29;20138;-65
2023/09/12 05:40:18;;;;;;;15.63;9.93;;;;;20.80;98146.00;;;;4933573;29;20121;-65
2023/09/12 05:42:45;;;;;;;11.70;9.00;;;;;20.90;98159.00;;;;4917819;29;20054;-66
2023/09/12 05:45:11;;;;;;;11.15;8.90;;;;;21.00;98159.00;;;;4933100;29;20070;-65
2023/09/12 05:47:38;;;;;;;13.95;10.68;;;;;21.00;98159.00;;;;4936861;29;20039;-65
2023/09/12 05:50:06;;;;;;;17.20;10.35;;;;;21.00;98164.00;;;;4921765;29;20134;-65
2023/09/12 05:52:34;;;;;;;13.52;8.95;;;;;21.10;98162.00;;;;4937100;29;20070;-65
2023/09/12 05:55:00;;;;;;;15.15;9.38;;;;;21.00;98174.00;;;;4920797;29;20044;-65
2023/09/12 05:57:27;;;;;;;13.68;9.25;;;;;20.90;98181.00;;;;4937423;29;20493;-68
2023/09/12 05:59:54;;;;;;;12.30;9.55;;;;;21.00;98179.00;;;;4937032;29;20085;-70
2023/09/12 06:02:21;;;;;;;17.90;9.55;;;;;21.00;98182.00;;;;4921225;29;20048;-68
2023/09/12 06:04:48;;;;;;;17.33;10.05;;;;;20.90;98176.00;;;;4920604;29;20418;-68
2023/09/12 06:07:15;;;;;;;13.85;9.30;;;;;20.80;98168.00;;;;4938246;29;20051;-67
2023/09/12 06:09:41;;;;;;;20.30;10.20;;;;;20.80;98164.00;;;;4920856;29;20054;-68
2023/09/12 06:12:08;;;;;;;12.15;10.00;;;;;20.70;98162.00;;;;4936855;29;20052;-68
2023/09/12 06:14:35;;;;;;;14.15;9.88;;;;;20.70;98169.00;;;;4920074;29;20048;-68
2023/09/12 06:17:02;;;;;;;16.08;9.77;;;;;20.70;98169.00;;;;4920777;29;20060;-67
2023/09/12 06:19:28;;;;;;;18.17;10.55;;;;;20.80;98168.00;;;;4936330;29;20492;-68
2023/09/12 06:21:55;;;;;;;15.27;9.63;;;;;20.90;98167.00;;;;4937534;29;20538;-68
2023/09/12 06:24:23;;;;;;;18.60;9.82;;;;;21.00;98160.00;;;;4937230;29;20060;-68
2023/09/12 06:26:50;;;;;;;16.58;10.07;;;;;21.00;98164.00;;;;4936430;29;20052;-67
2023/09/12 06:29:17;;;;;;;17.90;10.45;;;;;21.10;98163.00;;;;4936654;29;20062;-68
2023/09/12 06:31:44;;;;;;;11.98;10.00;;;;;21.10;98159.00;;;;4920896;29;20098;-67
2023/09/12 06:34:11;;;;;;;14.55;9.85;;;;;21.10;98164.00;;;;4936101;29;20043;-68
2023/09/12 06:36:39;;;;;;;11.20;9.27;;;;;21.10;98155.00;;;;4936643;29;20056;-68
2023/09/12 06:39:05;;;;;;;16.92;9.98;;;;;21.10;98156.00;;;;4920595;29;20054;-67
2023/09/12 06:41:32;;;;;;;13.88;9.60;;;;;21.10;98152.00;;;;4938080;29;20126;-68
2023/09/12 06:43:59;;;;;;;16.45;9.65;;;;;21.10;98156.00;;;;4936259;29;20047;-67
2023/09/12 06:46:27;;;;;;;16.35;9.30;;;;;21.30;98164.00;;;;4938253;29;20052;-70
2023/09/12 06:48:53;;;;;;;14.43;9.23;;;;;21.50;98170.00;;;;4937818;29;20111;-67
2023/09/12 06:51:25;;;;;;;17.60;10.30;;;;;21.70;98170.00;;;;4937381;29;20083;-68
2023/09/12 06:53:54;;;;;;;15.95;10.60;;;;;21.90;98165.00;;;;4936813;29;20040;-68
2023/09/12 06:56:21;;;;;;;15.98;9.77;;;;;21.80;98162.00;;;;4920423;29;20055;-67
2023/09/12 06:58:48;;;;;;;17.08;9.32;;;;;21.80;98174.00;;;;4937273;29;20047;-67
2023/09/12 07:01:15;;;;;;;14.80;9.07;;;;;21.90;98176.00;;;;4937277;29;20071;-67
2023/09/12 07:03:41;;;;;;;16.00;10.52;;;;;22.00;98172.00;;;;4936599;29;20043;-68
2023/09/12 07:06:08;;;;;;;14.82;9.10;;;;;22.10;98171.00;;;;4936848;29;20135;-68
2023/09/12 07:08:35;;;;;;;15.63;9.68;;;;;22.10;98173.00;;;;4936224;29;20155;-68
2023/09/12 07:11:05;;;;;;;22.63;9.68;;;;;22.20;98185.00;;;;4937167;29;20055;-68
2023/09/12 07:13:33;;;;;;;12.57;9.20;;;;;22.30;98178.00;;;;4936391;29;20067;-68
2023/09/12 07:16:03;;;;;;;16.70;9.63;;;;;22.50;98168.00;;;;4936743;29;20051;-68
2023/09/12 07:18:32;;;;;;;18.90;9.43;;;;;22.60;98170.00;;;;4936844;29;20071;-69
2023/09/12 07:21:04;;;;;;;14.90;12.45;;;;;22.70;98173.00;;;;4903108;29;20059;-68
2023/09/12 07:23:32;;;;;;;15.00;9.45;;;;;22.70;98174.00;;;;4916053;29;20075;-68
2023/09/12 07:25:59;;;;;;;14.43;9.65;;;;;22.70;98169.00;;;;4917369;29;20131;-67
2023/09/12 07:28:27;;;;;;;15.25;8.80;;;;;22.80;98161.00;;;;4917482;29;20095;-68
2023/09/12 07:30:57;;;;;;;16.15;9.32;;;;;23.00;98169.00;;;;4917253;29;20052;-68
2023/09/12 07:33:24;;;;;;;12.23;8.00;;;;;23.20;98172.00;;;;4917062;29;20131;-68
2023/09/12 07:35:54;;;;;;;17.70;11.48;;;;;23.40;98184.00;;;;4916123;29;20044;-68
2023/09/12 07:38:21;;;;;;;14.45;9.85;;;;;23.50;98189.00;;;;4916000;29;20506;-68
2023/09/12 07:40:48;;;;;;;14.73;8.55;;;;;23.70;98191.00;;;;4917334;29;20071;-68
2023/09/12 07:43:15;;;;;;;14.07;8.63;;;;;23.80;98194.00;;;;4915994;29;20501;-67
2023/09/12 07:45:42;;;;;;;15.73;9.15;;;;;23.90;98189.00;;;;4915194;29;20048;-68
2023/09/12 07:48:11;;;;;;;17.23;10.25;;;;;24.10;98185.00;;;;4917151;29;20046;-68
2023/09/12 07:50:38;;;;;;;15.88;9.15;;;;;24.20;98190.00;;;;4915796;29;20050;-68
2023/09/12 07:53:05;;;;;;;17.13;8.73;;;;;24.30;98189.00;;;;4900103;29;20054;-68
2023/09/12 07:55:44;;;;;;;14.18;8.60;;;;;24.30;98194.00;;;;4915099;29;20048;-68
2023/09/12 07:58:18;;;;;;;15.35;8.77;;;;;24.50;98194.00;;;;4915857;29;20494;-68
2023/09/12 08:00:46;;;;;;;15.85;8.25;;;;;24.60;98194.00;;;;4899978;29;20048;-68
2023/09/12 08:03:14;;;;;;;19.45;8.55;;;;;24.70;98206.00;;;;4916706;29;20052;-68
2023/09/12 08:05:41;;;;;;;14.20;8.50;;;;;24.80;98208.00;;;;4915136;29;20048;-68
2023/09/12 08:08:07;;;;;;;14.20;7.93;;;;;24.90;98205.00;;;;4916666;29;20048;-68
2023/09/12 08:10:34;;;;;;;11.43;7.65;;;;;25.00;98208.00;;;;4916441;29;20047;-68
2023/09/12 08:13:01;;;;;;;11.68;7.40;;;;;25.10;98210.00;;;;4915629;29;20493;-68
2023/09/12 08:15:28;;;;;;;11.07;7.25;;;;;25.20;98215.00;;;;4915067;29;20139;-68
2023/09/12 08:17:55;;;;;;;11.45;8.18;;;;;25.40;98218.00;;;;4915646;29;20107;-68
2023/09/12 08:20:22;;;;;;;12.02;8.10;;;;;25.50;98224.00;;;;4915465;29;20520;-68
2023/09/12 08:22:49;;;;;;;11.00;7.43;;;;;25.50;98217.00;;;;4916701;29;20052;-68
2023/09/12 08:25:16;;;;;;;11.75;7.68;;;;;25.60;98211.00;;;;4916163;29;20100;-68
2023/09/12 08:27:43;;;;;;;9.40;7.68;;;;;25.70;98216.00;;;;4915452;29;20107;-68
2023/09/12 08:30:12;;;;;;;12.57;8.25;;;;;25.90;98205.00;;;;4915705;29;20056;-68
2023/09/12 08:32:43;;;;;;;17.35;8.02;;;;;26.00;98208.00;;;;4917154;29;20076;-68
2023/09/12 08:35:12;;;;;;;9.13;7.15;;;;;26.10;98202.00;;;;4916380;29;20115;-68
2023/09/12 08:37:41;;;;;;;10.30;7.45;;;;;26.20;98203.00;;;;4918688;29;20047;-68
2023/09/12 08:40:10;;;;;;;9.75;7.38;;;;;26.40;98208.00;;;;4903456;29;20052;-68
2023/09/12 08:42:42;;;;;;;9.73;7.80;;;;;26.50;98224.00;;;;4903382;29;20052;-68
2023/09/12 08:45:19;;;;;;;10.38;7.15;;;;;26.50;98217.00;;;;4918561;29;20130;-66
2023/09/12 08:47:51;;;;;;;10.45;7.50;;;;;26.40;98224.00;;;;4917834;29;20119;-66
2023/09/12 08:50:20;;;;;;;12.82;7.28;;;;;26.40;98221.00;;;;4915736;29;20090;-69
2023/09/12 08:52:47;;;;;;;11.70;7.80;;;;;26.40;98216.00;;;;4914895;29;20064;-67
2023/09/12 08:55:35;;;;;;;9.75;7.95;;;;;26.50;98227.00;;;;4914397;29;20051;-67
2023/09/12 08:58:04;;;;;;;12.48;8.10;;;;;26.50;98223.00;;;;4915323;29;20055;-67
2023/09/12 09:00:32;;;;;;;11.75;7.53;;;;;26.50;98234.00;;;;4899301;29;20052;-67
2023/09/12 09:02:59;;;;;;;10.20;8.27;;;;;26.50;98234.00;;;;4914979;29;20525;-67
2023/09/12 09:05:27;;;;;;;9.43;7.63;;;;;26.60;98236.00;;;;4914414;29;20096;-68
2023/09/12 09:07:55;;;;;;;9.27;7.80;;;;;26.60;98229.00;;;;4914804;29;20490;-68
2023/09/12 09:10:22;;;;;;;11.00;7.60;;;;;26.70;98228.00;;;;4914725;29;20071;-68
2023/09/12 09:13:09;;;;;;;13.10;8.05;;;;;26.80;98217.00;;;;4914793;29;20139;-68
2023/09/12 09:15:41;;;;;;;11.30;8.02;;;;;26.90;98201.00;;;;4913717;29;20074;-68
2023/09/12 09:18:10;;;;;;;15.68;8.80;;;;;26.90;98211.00;;;;4899071;29;20052;-68
2023/09/12 09:20:38;;;;;;;10.20;8.00;;;;;27.00;98209.00;;;;4915971;29;20040;-68
2023/09/12 09:23:10;;;;;;;9.15;8.25;;;;;27.10;98214.00;;;;4918417;29;20040;-68
2023/09/12 09:25:41;;;;;;;8.15;7.05;;;;;27.30;98224.00;;;;4902404;29;20099;-68
2023/09/12 09:28:18;;;;;;;12.88;8.25;;;;;27.40;98221.00;;;;4918426;29;20475;-68
2023/09/12 09:30:47;;;;;;;11.48;7.72;;;;;27.60;98220.00;;;;4919454;29;20044;-68
2023/09/12 09:33:14;;;;;;;15.95;8.52;;;;;27.80;98218.00;;;;4918536;29;20047;-68
2023/09/12 09:35:42;;;;;;;8.40;7.45;;;;;27.90;98215.00;;;;4918015;29;20048;-68
2023/09/12 09:38:09;;;;;;;9.38;7.43;;;;;28.00;98207.00;;;;4918349;29;20108;-68
2023/09/12 09:40:36;;;;;;;8.10;7.05;;;;;28.40;98224.00;;;;4918438;29;20055;-68
2023/09/12 09:43:03;;;;;;;9.48;7.22;;;;;28.50;98221.00;;;;4918358;29;20047;-68
2023/09/12 09:45:32;;;;;;;10.85;7.80;;;;;28.50;98222.00;;;;4917493;29;20048;-69
2023/09/12 09:48:08;;;;;;;15.30;8.00;;;;;28.60;98218.00;;;;4919396;29;20047;-68
2023/09/12 09:50:38;;;;;;;10.43;7.50;;;;;28.60;98215.00;;;;4902365;29;20494;-68
2023/09/12 09:53:08;;;;;;;11.48;7.43;;;;;28.70;98217.00;;;;4919265;29;20058;-68
2023/09/12 09:55:34;;;;;;;9.93;7.35;;;;;28.80;98214.00;;;;4901921;29;20103;-68
2023/09/12 09:58:02;;;;;;;11.18;7.93;;;;;28.90;98216.00;;;;4919476;29;20062;-68
2023/09/12 10:00:33;;;;;;;11.80;8.23;;;;;28.90;98221.00;;;;4918385;29;20103;-68
2023/09/12 10:03:04;;;;;;;9.70;6.90;;;;;29.00;98217.00;;;;4902735;29;20056;-67
2023/09/12 10:05:32;;;;;;;9.73;7.80;;;;;29.00;98217.00;;;;4918967;29;20044;-68
2023/09/12 10:08:02;;;;;;;13.77;7.82;;;;;29.10;98221.00;;;;4902185;29;20052;-68
2023/09/12 10:10:29;;;;;;;8.70;7.80;;;;;29.10;98212.00;;;;4902092;29;20052;-68
2023/09/12 10:12:58;;;;;;;10.15;7.55;;;;;29.10;98215.00;;;;4918870;29;20053;-67
2023/09/12 10:15:30;;;;;;;14.18;7.13;;;;;29.10;98216.00;;;;4917410;29;20044;-67
2023/09/12 10:17:59;;;;;;;9.70;7.43;;;;;29.00;98206.00;;;;4918270;29;20048;-70
2023/09/12 10:20:55;;;;;;;8.02;7.07;;;;;29.20;98207.00;;;;4918880;29;20523;-67
2023/09/12 10:23:30;;;;;;;8.07;7.20;;;;;29.30;98207.00;;;;4917280;29;20048;-67
2023/09/12 10:25:58;;;;;;;8.18;6.88;;;;;29.20;98206.00;;;;4918586;29;20450;-67
2023/09/12 10:28:25;;;;;;;10.00;6.60;;;;;29.10;98203.00;;;;4902022;29;20517;-67
2023/09/12 10:30:53;;;;;;;11.35;7.40;;;;;29.20;98196.00;;;;4918099;29;20067;-67
2023/09/12 10:33:20;;;;;;;11.13;7.47;;;;;29.30;98202.00;;;;4901265;29;20052;-68
2023/09/12 10:35:50;;;;;;;8.57;6.78;;;;;29.20;98210.00;;;;4918057;29;20477;-68
2023/09/12 10:38:20;;;;;;;9.40;6.78;;;;;29.30;98209.00;;;;4917076;29;20524;-68
2023/09/12 10:40:48;;;;;;;10.18;7.13;;;;;29.30;98206.00;;;;4917125;29;20155;-68
2023/09/12 10:43:15;;;;;;;10.80;7.00;;;;;29.30;98203.00;;;;4917268;29;20418;-67
2023/09/12 10:45:43;;;;;;;11.35;6.85;;;;;29.40;98201.00;;;;4917138;29;20037;-68
2023/09/12 10:48:11;;;;;;;10.63;7.05;;;;;29.50;98194.00;;;;4917149;29;20087;-68
2023/09/12 10:50:39;;;;;;;8.88;7.28;;;;;29.50;98199.00;;;;4918468;29;20071;-68
2023/09/12 10:53:14;;;;;;;7.93;6.80;;;;;29.50;98193.00;;;;4917783;29;20517;-68
2023/09/12 10:56:01;;;;;;;9.30;6.80;;;;;29.70;98195.00;;;;4916344;29;20050;-68
2023/09/12 10:58:28;;;;;;;8.73;6.10;;;;;29.70;98194.00;;;;4917228;29;20052;-68
2023/09/12 11:01:21;;;;;;;8.35;6.70;;;;;29.90;98195.00;;;;4917956;29;20052;-68
2023/09/12 11:03:48;;;;;;;9.23;7.10;;;;;29.80;98186.00;;;;4916385;29;20044;-68
2023/09/12 11:06:42;;;;;;;7.32;6.13;;;;;29.80;98189.00;;;;4916555;29;20155;-68
2023/09/12 11:09:15;;;;;;;8.85;6.32;;;;;29.90;98189.00;;;;4915395;29;20084;-68
2023/09/12 11:11:42;;;;;;;9.95;6.47;;;;;30.00;98194.00;;;;4916485;29;20095;-68
2023/09/12 11:14:09;;;;;;;9.57;6.68;;;;;30.20;98191.00;;;;4915969;29;20087;-67
2023/09/12 11:16:36;;;;;;;7.93;6.45;;;;;30.20;98190.00;;;;4917757;29;20044;-68
2023/09/12 11:19:20;;;;;;;7.38;6.65;;;;;30.40;98185.00;;;;4916934;29;20048;-68
2023/09/12 11:21:49;;;;;;;10.05;6.85;;;;;30.40;98186.00;;;;4916505;29;20076;-68
2023/09/12 11:24:16;;;;;;;10.48;7.13;;;;;30.40;98187.00;;;;4900123;29;20063;-68
2023/09/12 11:27:00;;;;;;;9.23;7.20;;;;;30.40;98190.00;;;;4916327;29;20060;-67
2023/09/12 11:29:35;;;;;;;11.25;7.82;;;;;30.50;98183.00;;;;4901448;29;20052;-67
2023/09/12 11:32:03;;;;;;;9.15;7.18;;;;;30.50;98182.00;;;;4916606;29;20130;-67
2023/09/12 11:34:50;;;;;;;13.15;7.45;;;;;30.50;98184.00;;;;4915873;29;20046;-67
2023/09/12 11:37:25;;;;;;;9.95;6.80;;;;;30.40;98189.00;;;;4901702;29;20083;-67
2023/09/12 11:39:54;;;;;;;8.85;7.90;;;;;30.50;98181.00;;;;4901518;29;20052;-67
2023/09/12 11:42:25;;;;;;;7.45;6.60;;;;;30.50;98185.00;;;;4916795;29;20116;-67
2023/09/12 11:44:52;;;;;;;8.60;6.82;;;;;30.60;98191.00;;;;4915454;29;20458;-67
2023/09/12 11:47:20;;;;;;;9.02;6.28;;;;;30.80;98185.00;;;;4916051;29;20139;-67
2023/09/12 11:49:46;;;;;;;11.73;7.03;;;;;31.00;98191.00;;;;4900512;29;20052;-68
2023/09/12 11:52:16;;;;;;;10.18;7.88;;;;;31.20;98188.00;;;;4916194;29;20055;-68
2023/09/12 11:54:44;;;;;;;9.15;7.97;;;;;31.50;98188.00;;;;4916410;29;20044;-67
2023/09/12 11:57:15;;;;;;;8.20;6.50;;;;;31.70;98179.00;;;;4916161;29;20408;-67
2023/09/12 11:59:48;;;;;;;7.43;6.20;;;;;31.80;98185.00;;;;4900640;29;20465;-68
2023/09/12 12:02:16;;;;;;;8.20;6.72;;;;;31.80;98177.00;;;;4916071;29;20103;-67
2023/09/12 12:04:42;;;;;;;8.93;6.45;;;;;31.90;98188.00;;;;4915051;29;20142;-67
2023/09/12 12:07:10;;;;;;;6.90;6.15;;;;;32.10;98178.00;;;;4915674;29;20521;-67
2023/09/12 12:09:38;;;;;;;8.07;6.30;;;;;32.20;98180.00;;;;4915552;29;20052;-67
2023/09/12 12:12:14;;;;;;;7.93;6.43;;;;;32.20;98188.00;;;;4915657;29;20139;-67
2023/09/12 12:14:42;;;;;;;8.82;5.90;;;;;32.10;98183.00;;;;4899209;29;20103;-67